Time;durP1;ratioP1;P1;durP2;ratioP2;P2;SDS_P1;SDS_P2;PMS_P1;PMS_P2;Temp;Humidity;BMP_temperature;BMP_pressure;BME280_temperature;BME280_humidity;BME280_pressure;Samples;Min_cycle;Max_cycle;Signal;HPM_P1;HPM_P2
2024/04/20 00:01:45;;;;;;;0.40;0.20;;;6.90;99.90;;;;;;5490603;26;20516;-53
2024/04/20 00:04:16;;;;;;;0.40;0.20;;;6.90;99.90;;;;;;5490755;26;20783;-51
2024/04/20 00:06:45;;;;;;;0.30;0.20;;;7.00;99.90;;;;;;5490993;26;20843;-55
2024/04/20 00:09:14;;;;;;;1.47;0.30;;;7.10;99.90;;;;;;5491063;26;20514;-46
2024/04/20 00:11:43;;;;;;;1.73;0.30;;;7.10;99.90;;;;;;5491594;26;20820;-52
2024/04/20 00:14:12;;;;;;;0.90;0.30;;;7.00;99.90;;;;;;5491570;26;20587;-48
2024/04/20 00:16:41;;;;;;;1.40;0.30;;;6.80;99.90;;;;;;5490041;26;20701;-49
2024/04/20 00:19:09;;;;;;;0.40;0.20;;;6.70;99.90;;;;;;5489708;26;20466;-49
2024/04/20 00:21:41;;;;;;;0.40;0.20;;;6.80;99.90;;;;;;5483477;26;20529;-53
2024/04/20 00:24:10;;;;;;;0.60;0.20;;;6.80;99.90;;;;;;5488982;26;20450;-49
2024/04/20 00:26:39;;;;;;;0.50;0.20;;;6.90;99.90;;;;;;5483154;26;20450;-52
2024/04/20 00:29:07;;;;;;;0.40;0.20;;;6.90;99.90;;;;;;5489615;26;20521;-49
2024/04/20 00:31:36;;;;;;;0.87;0.30;;;6.80;99.90;;;;;;5489266;26;20524;-49
2024/04/20 00:34:05;;;;;;;2.50;0.30;;;6.70;99.90;;;;;;5490290;26;20474;-51
2024/04/20 00:36:34;;;;;;;0.70;0.40;;;6.60;99.90;;;;;;5489652;26;21081;-50
2024/04/20 00:39:05;;;;;;;1.97;0.30;;;6.70;99.90;;;;;;5490314;26;20454;-51
2024/04/20 00:41:34;;;;;;;0.40;0.20;;;6.60;99.90;;;;;;5490464;26;20465;-51
2024/04/20 00:44:03;;;;;;;2.33;0.20;;;6.80;99.90;;;;;;5458685;26;20469;-52
2024/04/20 00:46:33;;;;;;;0.40;0.17;;;6.80;99.90;;;;;;5489044;26;20547;-49
2024/04/20 00:49:01;;;;;;;2.33;0.20;;;6.70;99.90;;;;;;5489293;26;20504;-50
2024/04/20 00:51:31;;;;;;;2.77;0.30;;;6.70;99.90;;;;;;5490379;26;20587;-50
2024/04/20 00:54:02;;;;;;;0.57;0.20;;;6.70;99.90;;;;;;5486223;26;20462;-51
2024/04/20 00:56:34;;;;;;;2.63;0.30;;;6.60;99.90;;;;;;5489107;26;20560;-50
2024/04/20 00:59:03;;;;;;;0.40;0.20;;;6.60;99.90;;;;;;5486085;26;20470;-53
2024/04/20 01:01:32;;;;;;;0.30;0.10;;;6.60;99.90;;;;;;5491253;26;20599;-51
2024/04/20 01:04:01;;;;;;;0.40;0.20;;;6.60;99.90;;;;;;5488099;26;20518;-51
2024/04/20 01:06:30;;;;;;;0.30;0.13;;;6.80;99.90;;;;;;5493795;26;20584;-50
2024/04/20 01:08:59;;;;;;;0.30;0.10;;;6.60;99.90;;;;;;5488853;26;20508;-53
2024/04/20 01:11:28;;;;;;;1.23;0.30;;;6.70;99.90;;;;;;5492514;26;20525;-47
2024/04/20 01:14:02;;;;;;;0.70;0.30;;;6.60;99.90;;;;;;5491398;26;20465;-54
2024/04/20 01:16:31;;;;;;;0.80;0.20;;;6.60;99.90;;;;;;5491139;26;20473;-54
2024/04/20 01:19:01;;;;;;;0.30;0.20;;;6.50;99.90;;;;;;5488499;26;20517;-51
2024/04/20 01:21:30;;;;;;;2.00;0.20;;;6.60;99.90;;;;;;5491964;26;20474;-53
2024/04/20 01:24:05;;;;;;;1.43;0.20;;;6.60;99.90;;;;;;5487394;26;20458;-52
2024/04/20 01:26:37;;;;;;;2.87;0.30;;;6.70;99.90;;;;;;5497512;26;20515;-53
2024/04/20 01:29:05;;;;;;;3.20;0.30;;;6.60;99.90;;;;;;5492674;26;20890;-51
2024/04/20 01:31:34;;;;;;;0.30;0.20;;;6.60;99.90;;;;;;5493926;26;20553;-48
2024/04/20 01:34:03;;;;;;;2.40;0.23;;;6.70;99.90;;;;;;5493292;26;20579;-49
2024/04/20 01:36:32;;;;;;;0.30;0.20;;;6.70;99.90;;;;;;5493265;26;20474;-51
2024/04/20 01:39:01;;;;;;;0.30;0.17;;;6.70;99.90;;;;;;5489641;26;20501;-55
2024/04/20 01:41:30;;;;;;;1.43;0.23;;;6.70;99.90;;;;;;5492949;26;20474;-54
2024/04/20 01:44:01;;;;;;;2.10;0.20;;;6.70;99.90;;;;;;5491853;26;20469;-49
2024/04/20 01:46:30;;;;;;;0.50;0.20;;;6.70;99.90;;;;;;5494776;26;20533;-52
2024/04/20 01:48:57;;;;;;;0.40;0.10;;;6.70;99.90;;;;;;5489069;26;20481;-51
2024/04/20 01:51:26;;;;;;;0.40;0.10;;;6.70;99.90;;;;;;5492691;26;20505;-51
2024/04/20 01:53:54;;;;;;;0.80;0.13;;;6.60;99.90;;;;;;5493179;26;20454;-53
2024/04/20 01:56:24;;;;;;;0.43;0.30;;;6.50;99.90;;;;;;5493659;26;20512;-52
2024/04/20 01:58:53;;;;;;;0.50;0.20;;;6.50;99.90;;;;;;5493371;26;20477;-53
2024/04/20 02:01:24;;;;;;;0.30;0.13;;;6.40;99.90;;;;;;5489266;26;20518;-53
2024/04/20 02:03:53;;;;;;;0.40;0.10;;;6.40;99.90;;;;;;5493422;26;20538;-50
2024/04/20 02:06:22;;;;;;;0.47;0.20;;;6.50;99.90;;;;;;5493037;26;20500;-50
2024/04/20 02:08:51;;;;;;;0.50;0.20;;;6.50;99.90;;;;;;5492090;26;20454;-52
2024/04/20 02:11:20;;;;;;;3.73;0.27;;;6.30;99.90;;;;;;5491991;26;20477;-54
2024/04/20 02:13:49;;;;;;;0.37;0.10;;;6.20;99.90;;;;;;5493031;26;20469;-48
2024/04/20 02:16:18;;;;;;;0.80;0.30;;;6.20;99.90;;;;;;5493169;26;20470;-50
2024/04/20 02:18:50;;;;;;;1.43;0.20;;;6.40;99.90;;;;;;5493329;26;20512;-51
2024/04/20 02:21:20;;;;;;;0.33;0.20;;;6.60;99.90;;;;;;5488108;26;20521;-54
2024/04/20 02:23:49;;;;;;;0.37;0.17;;;6.60;99.90;;;;;;5495853;26;20514;-50
2024/04/20 02:26:20;;;;;;;0.47;0.20;;;6.60;99.90;;;;;;5501513;26;20473;-52
2024/04/20 02:28:49;;;;;;;0.30;0.10;;;6.70;99.90;;;;;;5497347;26;20529;-50
2024/04/20 02:31:19;;;;;;;0.40;0.20;;;6.70;99.90;;;;;;5497245;26;20569;-51
2024/04/20 02:33:50;;;;;;;0.73;0.30;;;6.70;99.90;;;;;;5495522;26;20556;-51
2024/04/20 02:36:20;;;;;;;0.70;0.10;;;6.70;99.90;;;;;;5487661;26;20541;-53
2024/04/20 02:38:47;;;;;;;2.00;0.40;;;6.70;99.90;;;;;;5495782;26;20474;-50
2024/04/20 02:41:16;;;;;;;0.40;0.20;;;6.70;99.90;;;;;;5497218;26;20474;-49
2024/04/20 02:43:44;;;;;;;1.43;0.20;;;6.60;99.90;;;;;;5496914;26;20520;-54
2024/04/20 02:46:13;;;;;;;0.40;0.10;;;6.60;99.90;;;;;;5491305;26;21758;-54
2024/04/20 02:48:42;;;;;;;0.33;0.13;;;6.60;99.90;;;;;;5488950;26;20596;-54
2024/04/20 02:51:14;;;;;;;0.50;0.20;;;6.60;99.90;;;;;;5499090;26;20477;-50
2024/04/20 02:53:40;;;;;;;0.50;0.20;;;6.70;99.90;;;;;;5487554;26;20470;-59
2024/04/20 02:56:09;;;;;;;0.50;0.20;;;6.50;99.90;;;;;;5493350;26;20474;-54
2024/04/20 02:58:38;;;;;;;1.30;0.20;;;6.40;99.90;;;;;;5488474;26;20504;-54
2024/04/20 03:01:09;;;;;;;0.80;0.20;;;6.60;99.90;;;;;;5490309;26;20446;-49
2024/04/20 03:03:39;;;;;;;3.50;0.23;;;6.60;99.90;;;;;;5491542;26;20450;-53
2024/04/20 03:06:08;;;;;;;0.40;0.20;;;6.50;99.90;;;;;;5492343;26;20516;-50
2024/04/20 03:08:39;;;;;;;0.30;0.20;;;6.40;99.90;;;;;;5491552;26;20919;-51
2024/04/20 03:11:08;;;;;;;1.43;0.30;;;6.30;99.90;;;;;;5491287;26;20974;-52
2024/04/20 03:13:37;;;;;;;0.77;0.20;;;6.10;99.90;;;;;;5489675;26;20504;-57
2024/04/20 03:16:06;;;;;;;3.03;0.20;;;6.10;99.90;;;;;;5491428;26;20446;-52
2024/04/20 03:18:35;;;;;;;0.50;0.20;;;6.00;99.90;;;;;;5491365;26;20449;-47
2024/04/20 03:21:05;;;;;;;1.03;0.20;;;6.00;99.90;;;;;;5491434;26;20470;-51
2024/04/20 03:23:33;;;;;;;0.47;0.17;;;6.10;99.90;;;;;;5490588;26;20478;-58
2024/04/20 03:26:05;;;;;;;0.30;0.10;;;6.10;99.90;;;;;;5490783;26;20907;-49
2024/04/20 03:28:34;;;;;;;6.73;0.63;;;6.10;99.90;;;;;;5495262;26;20487;-50
2024/04/20 03:31:03;;;;;;;0.40;0.20;;;6.10;99.90;;;;;;5492617;26;20517;-55
2024/04/20 03:33:35;;;;;;;0.30;0.20;;;6.10;99.90;;;;;;5494900;26;20513;-51
2024/04/20 03:36:04;;;;;;;0.73;0.20;;;6.00;99.90;;;;;;5496219;26;21288;-54
2024/04/20 03:38:33;;;;;;;0.30;0.20;;;6.10;99.90;;;;;;5494384;26;20519;-54
2024/04/20 03:41:03;;;;;;;1.07;0.20;;;6.00;99.90;;;;;;5486861;26;20481;-50
2024/04/20 03:43:35;;;;;;;0.50;0.20;;;5.90;99.90;;;;;;5491227;26;20470;-49
2024/04/20 03:46:04;;;;;;;0.60;0.20;;;5.80;99.90;;;;;;5491100;26;20446;-51
2024/04/20 03:48:32;;;;;;;0.40;0.10;;;5.80;99.90;;;;;;5499915;26;20458;-50
2024/04/20 03:51:02;;;;;;;0.30;0.20;;;6.00;99.90;;;;;;5492427;26;20524;-50
2024/04/20 03:53:30;;;;;;;0.40;0.20;;;5.80;99.90;;;;;;5491755;26;20470;-51
2024/04/20 03:55:59;;;;;;;0.40;0.20;;;5.70;99.90;;;;;;5491418;26;20462;-52
2024/04/20 03:58:28;;;;;;;1.07;0.40;;;5.90;99.90;;;;;;5491696;26;20704;-52
2024/04/20 04:00:59;;;;;;;5.90;1.07;;;5.70;99.90;;;;;;5493471;26;20932;-55
2024/04/20 04:03:29;;;;;;;0.43;0.20;;;5.80;99.90;;;;;;5491755;26;21022;-51
2024/04/20 04:05:59;;;;;;;0.50;0.40;;;6.10;99.90;;;;;;5490893;26;20529;-51
2024/04/20 04:08:28;;;;;;;1.63;0.30;;;6.10;99.90;;;;;;5493221;26;20529;-48
2024/04/20 04:10:57;;;;;;;0.60;0.23;;;6.20;99.90;;;;;;5491448;26;20957;-50
2024/04/20 04:13:26;;;;;;;0.40;0.27;;;6.30;99.90;;;;;;5454853;26;20451;-51
2024/04/20 04:15:55;;;;;;;0.30;0.10;;;6.20;99.90;;;;;;5454744;26;20541;-52
2024/04/20 04:18:27;;;;;;;3.50;0.30;;;6.30;99.90;;;;;;5454276;26;20913;-52
2024/04/20 04:20:55;;;;;;;0.40;0.20;;;6.40;99.90;;;;;;5454761;26;20467;-53
2024/04/20 04:23:24;;;;;;;0.47;0.30;;;6.40;99.90;;;;;;5455158;26;20535;-51
2024/04/20 04:25:53;;;;;;;5.43;0.43;;;6.40;99.90;;;;;;5452924;26;20467;-49
2024/04/20 04:28:22;;;;;;;0.60;0.20;;;6.40;99.90;;;;;;5452238;26;20463;-49
2024/04/20 04:30:51;;;;;;;1.57;0.23;;;6.30;99.90;;;;;;5452501;26;20451;-50
2024/04/20 04:33:19;;;;;;;2.67;0.23;;;6.20;99.90;;;;;;5454203;26;20455;-52
2024/04/20 04:35:58;;;;;;;0.53;0.20;;;6.40;99.90;;;;;;5448596;26;20517;-52
2024/04/20 04:38:28;;;;;;;1.97;0.20;;;6.30;99.90;;;;;;5455634;26;20466;-54
2024/04/20 04:40:57;;;;;;;4.37;0.50;;;6.40;99.90;;;;;;5464312;26;20473;-54
2024/04/20 04:43:26;;;;;;;0.50;0.20;;;6.40;99.90;;;;;;5466685;26;20586;-57
2024/04/20 04:45:55;;;;;;;1.87;0.40;;;6.40;99.90;;;;;;5461947;26;20603;-52
2024/04/20 04:48:28;;;;;;;4.37;0.20;;;6.50;99.90;;;;;;5459864;26;20483;-58
2024/04/20 04:50:59;;;;;;;0.40;0.20;;;6.50;99.90;;;;;;5459767;26;20977;-59
2024/04/20 04:53:26;;;;;;;0.60;0.40;;;6.60;99.90;;;;;;5464097;26;20471;-59
2024/04/20 04:55:55;;;;;;;0.30;0.20;;;6.50;99.90;;;;;;5467932;26;20479;-58
2024/04/20 04:58:24;;;;;;;1.37;0.43;;;6.40;99.90;;;;;;5462401;26;20443;-57
2024/04/20 05:00:53;;;;;;;1.17;0.30;;;6.50;99.90;;;;;;5454025;26;20498;-59
2024/04/20 05:03:22;;;;;;;0.50;0.20;;;6.40;99.90;;;;;;5463181;26;20970;-59
2024/04/20 05:05:51;;;;;;;1.60;0.40;;;6.40;99.90;;;;;;5485208;26;20465;-57
2024/04/20 05:08:26;;;;;;;0.50;0.30;;;6.50;99.90;;;;;;5462752;26;21057;-54
2024/04/20 05:10:55;;;;;;;0.40;0.20;;;6.20;99.90;;;;;;5477704;26;20465;-56
2024/04/20 05:13:24;;;;;;;0.90;0.20;;;6.10;99.90;;;;;;5494387;26;20582;-57
2024/04/20 05:15:52;;;;;;;1.10;0.20;;;6.10;99.90;;;;;;5493000;26;20453;-59
2024/04/20 05:18:23;;;;;;;0.83;0.30;;;6.10;47.80;;;;;;5493810;26;20629;-56
2024/04/20 05:20:52;;;;;;;0.60;0.30;;;6.10;99.90;;;;;;5493569;26;20466;-55
2024/04/20 05:23:23;;;;;;;0.67;0.40;;;6.20;99.90;;;;;;5493139;26;20461;-57
2024/04/20 05:25:52;;;;;;;0.40;0.30;;;6.20;99.90;;;;;;5493246;26;20469;-56
2024/04/20 05:28:22;;;;;;;0.50;0.40;;;6.20;99.90;;;;;;5491856;26;20505;-56
2024/04/20 05:30:51;;;;;;;0.40;0.20;;;6.20;99.90;;;;;;5492207;26;20989;-57
2024/04/20 05:33:20;;;;;;;0.40;0.20;;;6.30;99.90;;;;;;5493662;26;20512;-56
2024/04/20 05:35:48;;;;;;;0.40;0.20;;;6.20;99.90;;;;;;5492771;26;20461;-57
2024/04/20 05:38:17;;;;;;;1.20;0.30;;;6.40;99.90;;;;;;5488783;26;20474;-56
2024/04/20 05:40:48;;;;;;;0.40;0.23;;;6.40;99.90;;;;;;5470675;26;20473;-55
2024/04/20 05:43:17;;;;;;;0.30;0.20;;;6.40;99.90;;;;;;5490036;26;20951;-56
2024/04/20 05:45:46;;;;;;;0.30;0.10;;;6.40;99.90;;;;;;5491813;26;20579;-53
2024/04/20 05:48:14;;;;;;;0.53;0.20;;;6.70;99.90;;;;;;5488816;26;20915;-56
2024/04/20 05:50:45;;;;;;;0.30;0.10;;;7.00;99.90;;;;;;5492607;26;20466;-55
2024/04/20 05:53:14;;;;;;;0.40;0.20;;;7.00;99.90;;;;;;5492163;26;20514;-56
2024/04/20 05:55:43;;;;;;;0.50;0.20;;;7.00;99.90;;;;;;5492657;26;20529;-56
2024/04/20 05:58:14;;;;;;;0.33;0.20;;;6.60;99.90;;;;;;5492424;26;20503;-58
2024/04/20 06:00:46;;;;;;;0.40;0.20;;;6.20;99.90;;;;;;5492219;26;20732;-58
2024/04/20 06:03:14;;;;;;;1.37;0.20;;;6.20;1.00;;;;;;5461407;26;20468;-58
2024/04/20 06:05:46;;;;;;;4.27;0.30;;;6.50;99.90;;;;;;5464100;26;21031;-58
2024/04/20 06:08:14;;;;;;;0.30;0.10;;;6.60;99.90;;;;;;5493809;26;20762;-57
2024/04/20 06:10:43;;;;;;;1.63;0.20;;;6.90;99.90;;;;;;5484980;26;20528;-59
2024/04/20 06:13:14;;;;;;;1.17;0.20;;;7.10;99.90;;;;;;5522858;26;20452;-58
2024/04/20 06:15:44;;;;;;;1.17;0.20;;;7.00;1.00;;;;;;5489918;26;20805;-57
2024/04/20 06:18:13;;;;;;;1.47;0.33;;;7.10;99.90;;;;;;5504681;26;20819;-59
2024/04/20 06:20:42;;;;;;;0.40;0.20;;;7.30;99.90;;;;;;5523005;26;20502;-58
2024/04/20 06:23:11;;;;;;;0.37;0.17;;;7.30;99.90;;;;;;5491344;26;20473;-56
2024/04/20 06:25:40;;;;;;;0.50;0.27;;;7.30;99.90;;;;;;5494887;26;20516;-57
2024/04/20 06:28:09;;;;;;;0.60;0.30;;;7.50;99.90;;;;;;5488706;26;20704;-56
2024/04/20 06:30:41;;;;;;;0.60;0.30;;;7.40;99.90;;;;;;5491723;26;20259;-57
2024/04/20 06:33:09;;;;;;;1.53;0.20;;;7.10;99.90;;;;;;5494625;26;20975;-58
2024/04/20 06:35:38;;;;;;;0.40;0.20;;;7.00;99.90;;;;;;5484655;26;20526;-53
2024/04/20 06:38:07;;;;;;;0.53;0.30;;;6.80;99.90;;;;;;5501469;26;20521;-57
2024/04/20 06:40:37;;;;;;;1.43;0.30;;;6.80;99.90;;;;;;5502215;26;20457;-57
2024/04/20 06:43:06;;;;;;;0.90;0.20;;;7.10;99.90;;;;;;5516919;26;20730;-57
2024/04/20 06:45:35;;;;;;;0.80;0.27;;;7.20;99.90;;;;;;5519964;26;20449;-56
2024/04/20 06:48:09;;;;;;;0.70;0.23;;;7.30;99.90;;;;;;5470481;26;20511;-58
2024/04/20 06:50:38;;;;;;;1.23;0.30;;;7.30;99.90;;;;;;5495468;26;21016;-58
2024/04/20 06:53:07;;;;;;;1.90;0.20;;;7.30;99.90;;;;;;5488409;26;20469;-56
2024/04/20 06:55:36;;;;;;;0.30;0.10;;;7.50;99.90;;;;;;5505136;26;20457;-60
2024/04/20 06:58:04;;;;;;;0.40;0.20;;;7.20;99.90;;;;;;5474476;26;20446;-58
2024/04/20 07:00:33;;;;;;;0.43;0.20;;;7.10;99.90;;;;;;5488617;26;20958;-58
2024/04/20 07:03:02;;;;;;;0.40;0.20;;;7.10;99.90;;;;;;5481017;26;20471;-58
2024/04/20 07:05:34;;;;;;;0.70;0.20;;;7.30;99.90;;;;;;5458355;26;20476;-58
2024/04/20 07:08:02;;;;;;;0.83;0.23;;;7.50;99.90;;;;;;5470702;26;20474;-59
2024/04/20 07:10:32;;;;;;;0.60;0.30;;;7.40;99.90;;;;;;5472171;26;20518;-58
2024/04/20 07:13:00;;;;;;;0.60;0.30;;;7.30;99.90;;;;;;5483125;26;20511;-57
2024/04/20 07:15:29;;;;;;;2.33;0.20;;;7.50;99.90;;;;;;5490628;26;20509;-58
2024/04/20 07:17:58;;;;;;;5.70;0.40;;;7.70;99.90;;;;;;5489632;26;20514;-58
2024/04/20 07:20:26;;;;;;;0.40;0.20;;;7.90;99.90;;;;;;5501814;26;20470;-58
2024/04/20 07:22:58;;;;;;;0.40;0.20;;;8.00;99.90;;;;;;5482483;26;20461;-58
2024/04/20 07:25:26;;;;;;;0.40;0.20;;;8.30;99.90;;;;;;5454604;26;20499;-58
2024/04/20 07:27:55;;;;;;;1.80;0.40;;;8.00;99.90;;;;;;5481227;26;20515;-58
2024/04/20 07:30:24;;;;;;;0.40;0.30;;;8.20;99.90;;;;;;5462794;26;20471;-58
2024/04/20 07:32:52;;;;;;;1.43;0.30;;;8.10;99.90;;;;;;5461019;26;20533;-58
2024/04/20 07:35:21;;;;;;;0.60;0.30;;;8.30;99.90;;;;;;5472601;26;20466;-58
2024/04/20 07:37:50;;;;;;;0.40;0.23;;;8.50;99.90;;;;;;5504830;26;20515;-58
2024/04/20 07:40:21;;;;;;;0.60;0.40;;;8.50;99.90;;;;;;5475357;26;20501;-58
2024/04/20 07:42:50;;;;;;;0.70;0.30;;;8.40;99.90;;;;;;5479277;26;20473;-58
2024/04/20 07:45:19;;;;;;;0.50;0.30;;;8.10;99.90;;;;;;5483802;26;20601;-58
2024/04/20 07:47:48;;;;;;;0.93;0.30;;;7.70;99.90;;;;;;5482694;26;20954;-57
2024/04/20 07:50:16;;;;;;;1.67;0.37;;;7.80;99.90;;;;;;5483533;26;20469;-58
2024/04/20 07:52:47;;;;;;;0.50;0.30;;;7.90;99.90;;;;;;5507066;26;20470;-58
2024/04/20 07:55:16;;;;;;;0.47;0.20;;;8.00;99.90;;;;;;5489385;26;20495;-58
2024/04/20 07:57:48;;;;;;;0.60;0.43;;;8.10;99.90;;;;;;5491525;26;20458;-58
2024/04/20 08:00:18;;;;;;;0.63;0.30;;;8.20;99.90;;;;;;5511092;26;20977;-58
2024/04/20 08:02:47;;;;;;;0.50;0.30;;;8.30;99.90;;;;;;5482437;26;20477;-58
2024/04/20 08:05:16;;;;;;;1.00;0.30;;;8.40;99.90;;;;;;5474880;26;20867;-58
2024/04/20 08:07:44;;;;;;;2.20;0.40;;;8.50;99.90;;;;;;5461483;26;20469;-58
2024/04/20 08:10:13;;;;;;;0.60;0.30;;;8.60;99.90;;;;;;5490309;26;20496;-59
2024/04/20 08:12:42;;;;;;;0.57;0.40;;;8.70;99.90;;;;;;5489884;26;20521;-59
2024/04/20 08:15:13;;;;;;;0.50;0.30;;;8.70;99.90;;;;;;5473740;26;20470;-58
2024/04/20 08:17:42;;;;;;;1.77;0.30;;;8.80;99.90;;;;;;5453779;26;20455;-58
2024/04/20 08:20:11;;;;;;;0.60;0.37;;;9.00;99.90;;;;;;5488971;26;20466;-58
2024/04/20 08:22:41;;;;;;;0.40;0.30;;;9.00;99.90;;;;;;5482966;26;20485;-58
2024/04/20 08:25:09;;;;;;;0.53;0.20;;;8.80;99.90;;;;;;5452725;26;20958;-56
2024/04/20 08:27:38;;;;;;;2.90;0.40;;;8.70;99.90;;;;;;5471397;26;20454;-58
2024/04/20 08:30:08;;;;;;;0.40;0.30;;;8.60;99.90;;;;;;5485580;26;21197;-58
2024/04/20 08:32:39;;;;;;;0.50;0.30;;;8.60;99.90;;;;;;5520270;26;20464;-57
2024/04/20 08:35:08;;;;;;;0.50;0.30;;;8.80;99.90;;;;;;5486316;26;20512;-58
2024/04/20 08:37:37;;;;;;;1.30;0.30;;;9.10;99.90;;;;;;5479087;26;20808;-59
2024/04/20 08:40:07;;;;;;;0.43;0.30;;;9.10;99.90;;;;;;5487468;26;20580;-59
2024/04/20 08:42:37;;;;;;;0.60;0.30;;;9.00;99.90;;;;;;5489970;26;20434;-58
2024/04/20 08:45:11;;;;;;;0.80;0.30;;;8.80;99.90;;;;;;5479368;26;20595;-58
2024/04/20 08:47:45;;;;;;;1.03;0.23;;;8.60;99.90;;;;;;5487055;26;21155;-58
2024/04/20 08:50:15;;;;;;;0.90;0.27;;;8.60;99.90;;;;;;5448499;26;20607;-58
2024/04/20 08:52:44;;;;;;;0.60;0.30;;;8.50;99.90;;;;;;5451293;26;20500;-58
2024/04/20 08:55:13;;;;;;;0.60;0.30;;;8.50;99.90;;;;;;5481247;26;20454;-59
2024/04/20 08:57:45;;;;;;;0.40;0.23;;;8.50;99.90;;;;;;5481966;26;20502;-59
2024/04/20 09:00:14;;;;;;;0.47;0.30;;;8.60;99.90;;;;;;5487369;26;20464;-59
2024/04/20 09:02:47;;;;;;;1.50;0.50;;;8.50;99.90;;;;;;5525284;26;20503;-56
2024/04/20 09:05:18;;;;;;;0.90;0.30;;;8.50;99.90;;;;;;5499049;26;20458;-57
2024/04/20 09:07:48;;;;;;;0.50;0.23;;;8.60;99.90;;;;;;5486957;26;20450;-58
2024/04/20 09:10:16;;;;;;;0.60;0.40;;;8.60;99.90;;;;;;5485545;26;20518;-60
2024/04/20 09:12:45;;;;;;;0.77;0.43;;;8.90;99.90;;;;;;5512780;26;20448;-59
2024/04/20 09:15:14;;;;;;;1.87;0.40;;;9.20;99.90;;;;;;5520770;26;20456;-57
2024/04/20 09:17:46;;;;;;;0.80;0.30;;;9.40;99.90;;;;;;5492013;26;20482;-60
2024/04/20 09:20:15;;;;;;;0.67;0.40;;;9.50;99.90;;;;;;5513466;25;20460;-57
2024/04/20 09:22:44;;;;;;;0.73;0.40;;;9.40;99.90;;;;;;5481565;26;20725;-58
2024/04/20 09:25:12;;;;;;;8.93;3.20;;;9.40;99.90;;;;;;5484808;26;20510;-60
2024/04/20 09:27:42;;;;;;;4.03;0.50;;;9.30;99.90;;;;;;5481454;26;20455;-59
2024/04/20 09:30:11;;;;;;;0.80;0.30;;;9.50;99.90;;;;;;5481584;26;20469;-58
2024/04/20 09:32:44;;;;;;;0.70;0.50;;;9.60;99.90;;;;;;5514492;25;20606;-59
2024/04/20 09:35:16;;;;;;;0.53;0.30;;;9.70;99.90;;;;;;5481147;26;20522;-57
2024/04/20 09:37:45;;;;;;;0.80;0.30;;;9.60;99.90;;;;;;5493347;25;20966;-58
2024/04/20 09:40:13;;;;;;;0.70;0.30;;;9.60;99.90;;;;;;5507061;26;20500;-58
2024/04/20 09:42:44;;;;;;;0.80;0.40;;;9.50;99.90;;;;;;5490843;26;20449;-57
2024/04/20 09:45:13;;;;;;;0.67;0.37;;;9.50;99.90;;;;;;5487829;26;20501;-57
2024/04/20 09:47:43;;;;;;;0.53;0.30;;;9.40;99.90;;;;;;5490352;26;20525;-57
2024/04/20 09:50:15;;;;;;;0.70;0.40;;;9.50;99.90;;;;;;5455897;26;20455;-57
2024/04/20 09:52:52;;;;;;;0.40;0.30;;;9.60;99.90;;;;;;5467719;26;20585;-57
2024/04/20 09:55:30;;;;;;;0.77;0.50;;;9.70;99.90;;;;;;5488654;26;20521;-58
2024/04/20 09:58:01;;;;;;;0.70;0.30;;;9.70;99.90;;;;;;5487889;26;20734;-59
2024/04/20 10:00:32;;;;;;;0.60;0.37;;;10.00;99.90;;;;;;5493097;26;20509;-55
2024/04/20 10:03:02;;;;;;;0.80;0.40;;;10.00;99.90;;;;;;5477723;26;20948;-56
2024/04/20 10:05:34;;;;;;;1.10;0.40;;;10.00;99.90;;;;;;5455205;26;20515;-58
2024/04/20 10:08:05;;;;;;;1.70;0.30;;;10.30;99.90;;;;;;5507103;25;20514;-57
2024/04/20 10:10:37;;;;;;;2.00;0.37;;;10.20;99.90;;;;;;5482864;26;20463;-55
2024/04/20 10:13:06;;;;;;;0.77;0.33;;;9.70;99.90;;;;;;5463633;26;20781;-56
2024/04/20 10:15:37;;;;;;;0.70;0.40;;;9.40;99.90;;;;;;5494772;26;20453;-58
2024/04/20 10:18:06;;;;;;;0.43;0.30;;;9.30;99.90;;;;;;5528309;26;20520;-56
2024/04/20 10:20:40;;;;;;;0.80;0.33;;;9.10;99.90;;;;;;5468438;26;20924;-56
2024/04/20 10:23:16;;;;;;;1.40;0.50;;;9.00;99.90;;;;;;5487114;26;20514;-56
2024/04/20 10:25:48;;;;;;;0.67;0.37;;;9.20;99.90;;;;;;5472742;26;20531;-60
2024/04/20 10:28:27;;;;;;;0.83;0.40;;;9.10;99.90;;;;;;5484340;26;21061;-59
2024/04/20 10:30:56;;;;;;;0.73;0.40;;;9.20;99.90;;;;;;5487533;26;20457;-58
2024/04/20 10:33:30;;;;;;;1.33;0.30;;;9.40;99.90;;;;;;5486405;26;20727;-59
2024/04/20 10:36:02;;;;;;;1.53;0.30;;;9.50;99.90;;;;;;5492536;26;20461;-57
2024/04/20 10:38:32;;;;;;;0.53;0.30;;;9.30;99.90;;;;;;5485006;26;20454;-57
2024/04/20 10:41:13;;;;;;;0.40;0.30;;;9.30;99.90;;;;;;5481590;26;20446;-58
2024/04/20 10:43:42;;;;;;;1.23;0.60;;;9.40;99.90;;;;;;5480632;26;20351;-59
2024/04/20 10:46:11;;;;;;;0.70;0.30;;;9.50;99.90;;;;;;5491395;26;20270;-59
2024/04/20 10:48:41;;;;;;;0.70;0.40;;;9.60;99.90;;;;;;5478977;26;20477;-59
2024/04/20 10:51:17;;;;;;;1.30;0.40;;;9.50;99.90;;;;;;5496978;26;21011;-58
2024/04/20 10:53:46;;;;;;;0.93;0.40;;;9.30;99.90;;;;;;5490146;26;20469;-56
2024/04/20 10:56:16;;;;;;;0.73;0.37;;;9.20;99.90;;;;;;5489840;26;20494;-61
2024/04/20 10:58:45;;;;;;;1.63;0.30;;;9.40;99.90;;;;;;5487003;26;20462;-59
2024/04/20 11:01:13;;;;;;;1.67;0.40;;;9.50;99.90;;;;;;5481107;26;20474;-57
2024/04/20 11:03:43;;;;;;;0.70;0.40;;;9.60;99.90;;;;;;5485582;26;20470;-58
2024/04/20 11:06:21;;;;;;;0.80;0.40;;;9.70;99.90;;;;;;5486845;26;20518;-61
2024/04/20 11:08:50;;;;;;;0.67;0.40;;;9.80;99.90;;;;;;5486340;26;20462;-58
2024/04/20 11:11:18;;;;;;;0.50;0.30;;;9.90;99.90;;;;;;5483894;26;20450;-58
2024/04/20 11:13:47;;;;;;;0.93;0.70;;;9.80;99.90;;;;;;5482869;26;20518;-58
2024/04/20 11:16:18;;;;;;;0.50;0.30;;;9.70;99.90;;;;;;5480755;26;20517;-55
2024/04/20 11:18:47;;;;;;;0.50;0.30;;;9.70;99.90;;;;;;5475923;26;20794;-59
2024/04/20 11:21:18;;;;;;;0.70;0.40;;;9.80;99.90;;;;;;5474994;26;20508;-56
2024/04/20 11:23:47;;;;;;;0.60;0.30;;;9.80;99.90;;;;;;5476580;26;20562;-61
2024/04/20 11:26:18;;;;;;;0.50;0.30;;;9.50;99.90;;;;;;5489215;26;20442;-59
2024/04/20 11:28:47;;;;;;;0.60;0.30;;;9.60;99.90;;;;;;5489915;26;20942;-59
2024/04/20 11:31:16;;;;;;;1.20;0.43;;;9.80;99.90;;;;;;5488898;26;20530;-57
2024/04/20 11:33:49;;;;;;;0.40;0.30;;;10.00;99.90;;;;;;5475658;26;20486;-59
2024/04/20 11:36:20;;;;;;;1.93;0.30;;;10.20;99.90;;;;;;5510363;25;20464;-58
2024/04/20 11:38:50;;;;;;;0.60;0.30;;;10.30;99.90;;;;;;5472872;26;20582;-57
2024/04/20 11:41:24;;;;;;;0.60;0.30;;;10.30;99.90;;;;;;5483486;26;21137;-55
2024/04/20 11:43:53;;;;;;;2.50;0.30;;;10.40;99.90;;;;;;5471269;26;20541;-58
2024/04/20 11:46:24;;;;;;;0.50;0.30;;;10.50;99.90;;;;;;5467083;26;20462;-54
2024/04/20 11:48:53;;;;;;;4.10;0.30;;;10.40;99.90;;;;;;5478549;26;20470;-57
2024/04/20 11:54:22;;;;;;;0.47;0.30;;;10.40;99.90;;;;;;5470173;26;20993;-57
2024/04/20 11:56:51;;;;;;;0.60;0.30;;;10.60;99.90;;;;;;5459345;26;20525;-58
2024/04/20 11:59:20;;;;;;;0.83;0.40;;;10.60;99.90;;;;;;5450660;26;20470;-60
2024/04/20 12:01:48;;;;;;;0.70;0.40;;;10.60;99.90;;;;;;5451680;26;20506;-58
2024/04/20 12:04:17;;;;;;;0.77;0.40;;;10.50;99.90;;;;;;5448895;26;20495;-57
2024/04/20 12:06:48;;;;;;;1.13;0.40;;;10.50;99.90;;;;;;5450200;26;20624;-58
2024/04/20 12:09:17;;;;;;;0.57;0.37;;;10.40;99.90;;;;;;5450811;26;20481;-57
2024/04/20 12:11:45;;;;;;;0.70;0.30;;;10.50;99.90;;;;;;5465870;26;20478;-57
2024/04/20 12:14:14;;;;;;;2.50;0.40;;;10.50;99.90;;;;;;5445530;26;20501;-59
2024/04/20 12:16:43;;;;;;;0.50;0.30;;;10.50;99.90;;;;;;5415844;26;20521;-58
2024/04/20 12:19:11;;;;;;;0.60;0.40;;;10.60;99.90;;;;;;5413442;26;20530;-59
2024/04/20 12:21:41;;;;;;;0.80;0.40;;;10.60;99.90;;;;;;5409748;26;20516;-59
2024/04/20 12:24:13;;;;;;;0.70;0.30;;;10.70;99.90;;;;;;5415602;26;20523;-57
2024/04/20 12:26:42;;;;;;;0.60;0.40;;;10.70;99.90;;;;;;5412177;26;21304;-59
2024/04/20 12:29:10;;;;;;;0.70;0.40;;;10.90;99.90;;;;;;5447128;26;20457;-59
2024/04/20 12:31:39;;;;;;;0.50;0.30;;;10.90;99.90;;;;;;5460219;26;20458;-58
2024/04/20 12:34:09;;;;;;;0.50;0.40;;;11.00;99.90;;;;;;5426553;26;20525;-57
2024/04/20 12:36:38;;;;;;;0.60;0.30;;;11.20;99.90;;;;;;5412748;26;20792;-57
2024/04/20 12:39:06;;;;;;;0.70;0.27;;;10.90;99.90;;;;;;5419990;26;20533;-55
2024/04/20 12:41:38;;;;;;;0.43;0.20;;;11.00;99.90;;;;;;5416986;26;20564;-57
2024/04/20 12:44:07;;;;;;;0.50;0.30;;;11.20;99.90;;;;;;5446855;26;20523;-56
2024/04/20 12:46:36;;;;;;;0.50;0.40;;;11.20;99.90;;;;;;5445528;26;20547;-57
2024/04/20 12:49:05;;;;;;;0.93;0.30;;;11.40;99.90;;;;;;5419211;26;20779;-53
2024/04/20 12:51:34;;;;;;;0.50;0.40;;;11.60;99.90;;;;;;5446457;26;20618;-55
2024/04/20 12:54:03;;;;;;;0.57;0.30;;;11.70;99.90;;;;;;5451238;26;20468;-59
2024/04/20 12:56:31;;;;;;;0.40;0.30;;;12.00;99.90;;;;;;5439133;26;20470;-57
2024/04/20 12:59:03;;;;;;;0.73;0.30;;;12.20;99.90;;;;;;5451580;26;20457;-55
2024/04/20 13:01:32;;;;;;;0.60;0.30;;;12.30;99.90;;;;;;5416450;26;20460;-56
2024/04/20 13:04:00;;;;;;;0.43;0.30;;;12.40;99.90;;;;;;5417229;26;20453;-58
2024/04/20 13:06:29;;;;;;;0.53;0.30;;;12.40;99.90;;;;;;5460705;26;21098;-55
2024/04/20 13:08:58;;;;;;;0.60;0.30;;;12.40;99.80;;;;;;5460273;26;20519;-57
2024/04/20 13:11:27;;;;;;;0.47;0.30;;;12.40;99.40;;;;;;5464149;26;20819;-55